createdAt,value
2017-12-02T00:00:43.475Z,129.90
2017-12-02T00:01:43.451Z,96.10
2017-12-02T00:02:43.420Z,99.40
2017-12-02T00:03:43.403Z,91.40
2017-12-02T00:04:43.368Z,118.00
2017-12-02T00:05:43.361Z,98.40
2017-12-02T00:06:43.322Z,122.70
2017-12-02T00:07:43.297Z,171.00
2017-12-02T00:08:43.267Z,86.20
2017-12-02T00:09:43.244Z,84.10
2017-12-02T00:10:43.223Z,113.70
2017-12-02T00:11:43.202Z,109.80
2017-12-02T00:12:43.175Z,88.50
2017-12-02T00:13:43.144Z,108.80
2017-12-02T00:14:43.122Z,123.50
2017-12-02T00:15:43.110Z,88.80
2017-12-02T00:16:43.072Z,84.20
2017-12-02T00:17:43.045Z,96.10
2017-12-02T00:18:43.021Z,82.90
2017-12-02T00:19:42.997Z,105.20
2017-12-02T00:20:42.971Z,91.90
2017-12-02T00:21:42.946Z,89.80
2017-12-02T00:22:42.920Z,83.00
2017-12-02T00:23:42.892Z,83.00
2017-12-02T00:24:42.874Z,80.10
2017-12-02T00:25:42.855Z,89.90
2017-12-02T00:26:42.819Z,94.00
2017-12-02T00:27:42.795Z,97.40
2017-12-02T00:28:42.769Z,82.40
2017-12-02T00:29:42.753Z,84.00
2017-12-02T00:30:42.738Z,79.50
2017-12-02T00:31:42.703Z,91.70
2017-12-02T00:32:42.682Z,77.10
2017-12-02T00:33:42.657Z,82.70
2017-12-02T00:34:42.620Z,74.00
2017-12-02T00:35:42.626Z,75.30
2017-12-02T00:36:42.572Z,81.30
2017-12-02T00:37:42.549Z,71.40
2017-12-02T00:38:42.534Z,64.40
2017-12-02T00:39:42.515Z,61.80
2017-12-02T00:40:42.472Z,62.90
2017-12-02T00:41:42.452Z,80.20
2017-12-02T00:42:42.416Z,83.00
2017-12-02T00:43:42.403Z,102.40
2017-12-02T00:44:42.370Z,75.90
2017-12-02T00:45:42.415Z,85.10
2017-12-02T00:46:42.319Z,72.90
2017-12-02T00:47:42.297Z,71.30
2017-12-02T00:48:42.268Z,74.60
2017-12-02T00:49:42.254Z,67.30
2017-12-02T00:50:42.232Z,74.60
2017-12-02T00:51:42.194Z,69.40
2017-12-02T00:52:42.171Z,71.30
2017-12-02T00:53:42.161Z,63.80
2017-12-02T00:54:42.118Z,62.70
2017-12-02T00:55:42.097Z,83.00
2017-12-02T00:56:42.069Z,60.00
2017-12-02T00:57:42.053Z,69.00
2017-12-02T00:58:42.020Z,81.40
2017-12-02T00:59:41.997Z,80.80
2017-12-02T01:00:41.967Z,78.30
2017-12-02T01:01:41.952Z,86.40
2017-12-02T01:02:41.934Z,77.80
2017-12-02T01:03:41.893Z,71.90
2017-12-02T01:04:41.870Z,94.00
2017-12-02T01:05:41.845Z,76.90
2017-12-02T01:06:41.820Z,62.90
2017-12-02T01:07:41.794Z,66.10
2017-12-02T01:08:41.774Z,66.00
2017-12-02T01:09:41.745Z,90.70
2017-12-02T01:10:41.717Z,85.10
2017-12-02T01:11:41.699Z,65.40
2017-12-02T01:12:41.665Z,65.20
2017-12-02T01:13:41.645Z,72.30
2017-12-02T01:14:41.864Z,128.70
2017-12-02T01:15:41.592Z,107.10
2017-12-02T01:16:41.567Z,78.80
2017-12-02T01:17:41.542Z,104.80
2017-12-02T01:18:41.516Z,113.20
2017-12-02T01:19:41.493Z,130.20
2017-12-02T01:20:41.476Z,106.20
2017-12-02T01:21:41.442Z,94.70
2017-12-02T01:22:41.425Z,72.00
2017-12-02T01:23:41.394Z,74.40
2017-12-02T01:24:41.390Z,83.50
2017-12-02T01:25:41.340Z,70.90
2017-12-02T01:26:41.325Z,69.80
2017-12-02T01:27:41.301Z,72.00
2017-12-02T01:28:41.280Z,79.30
2017-12-02T01:29:41.244Z,127.80
2017-12-02T01:30:41.217Z,62.30
2017-12-02T01:31:41.194Z,73.00
2017-12-02T01:32:41.171Z,86.30
2017-12-02T01:33:41.151Z,83.40
2017-12-02T01:34:41.125Z,88.70
2017-12-02T01:35:41.093Z,76.00
2017-12-02T01:36:41.070Z,103.60
2017-12-02T01:37:41.041Z,106.60
2017-12-02T01:38:41.019Z,117.40
2017-12-02T01:39:40.991Z,75.90
2017-12-02T01:40:40.986Z,70.10
2017-12-02T01:41:40.944Z,77.00
2017-12-02T01:42:40.918Z,88.70
2017-12-02T01:43:40.895Z,81.40
2017-12-02T01:44:40.947Z,77.70
2017-12-02T01:45:40.843Z,108.10
2017-12-02T01:46:40.819Z,84.80
2017-12-02T01:47:40.797Z,89.90
2017-12-02T01:48:40.768Z,86.80
2017-12-02T01:49:40.746Z,71.00
2017-12-02T01:50:40.727Z,80.70
2017-12-02T01:51:40.715Z,106.10
2017-12-02T01:52:40.678Z,82.90
2017-12-02T01:53:40.650Z,72.70
2017-12-02T01:54:40.618Z,90.20
2017-12-02T01:55:40.596Z,81.80
2017-12-02T01:56:40.571Z,88.30
2017-12-02T01:57:40.546Z,87.30
2017-12-02T01:58:40.519Z,112.40
2017-12-02T01:59:40.496Z,143.50
2017-12-02T02:00:40.471Z,97.90
2017-12-02T02:01:40.446Z,132.50
2017-12-02T02:02:40.428Z,154.60
2017-12-02T02:03:40.394Z,138.40
2017-12-02T02:04:40.370Z,81.10
2017-12-02T02:05:40.353Z,98.80
2017-12-02T02:06:40.320Z,89.70
2017-12-02T02:07:40.297Z,69.30
2017-12-02T02:08:40.285Z,64.00
2017-12-02T02:09:40.255Z,76.60
2017-12-02T02:10:40.227Z,75.10
2017-12-02T02:11:40.202Z,60.80
2017-12-02T02:12:40.178Z,68.60
2017-12-02T02:13:40.146Z,66.40
2017-12-02T02:14:40.125Z,62.20
2017-12-02T02:15:40.096Z,58.00
2017-12-02T02:16:40.073Z,73.40
2017-12-02T02:17:40.048Z,69.30
2017-12-02T02:18:40.042Z,63.80
2017-12-02T02:19:39.999Z,70.30
2017-12-02T02:20:39.973Z,67.40
2017-12-02T02:21:39.961Z,65.00
2017-12-02T02:22:39.922Z,73.60
2017-12-02T02:23:39.896Z,92.10
2017-12-02T02:24:39.876Z,80.80
2017-12-02T02:25:39.854Z,64.70
2017-12-02T02:26:39.825Z,68.00
2017-12-02T02:27:39.802Z,85.70
2017-12-02T02:28:39.783Z,115.00
2017-12-02T02:29:39.804Z,101.20
2017-12-02T02:30:39.732Z,91.70
2017-12-02T02:31:39.704Z,66.00
2017-12-02T02:32:39.675Z,66.40
2017-12-02T02:33:39.655Z,63.80
2017-12-02T02:34:39.625Z,69.40
2017-12-02T02:35:39.619Z,67.90
2017-12-02T02:36:39.587Z,62.80
2017-12-02T02:37:39.554Z,72.00
2017-12-02T02:38:39.529Z,60.00
2017-12-02T02:39:39.605Z,68.10
2017-12-02T02:40:39.482Z,78.60
2017-12-02T02:41:39.453Z,65.00
2017-12-02T02:42:39.430Z,92.50
2017-12-02T02:43:39.405Z,92.30
2017-12-02T02:44:39.385Z,85.50
2017-12-02T02:45:39.360Z,86.60
2017-12-02T02:46:39.332Z,86.30
2017-12-02T02:47:39.304Z,96.80
2017-12-02T02:48:39.282Z,62.10
2017-12-02T02:49:39.389Z,78.80
2017-12-02T02:50:39.231Z,75.60
2017-12-02T02:51:39.251Z,103.40
2017-12-02T02:52:39.179Z,108.10
2017-12-02T02:53:39.156Z,78.60
2017-12-02T02:54:39.132Z,57.80
2017-12-02T02:55:39.108Z,68.40
2017-12-02T02:56:39.080Z,86.20
2017-12-02T02:57:39.058Z,72.00
2017-12-02T02:58:39.029Z,117.60
2017-12-02T02:59:39.007Z,71.10
2017-12-02T03:00:38.978Z,59.70
2017-12-02T03:01:38.957Z,91.90
2017-12-02T03:02:38.928Z,116.10
2017-12-02T03:03:38.906Z,83.10
2017-12-02T03:04:38.881Z,73.10
2017-12-02T03:05:38.856Z,67.80
2017-12-02T03:06:38.830Z,64.60
2017-12-02T03:07:38.814Z,66.50
2017-12-02T03:08:38.780Z,78.70
2017-12-02T03:09:38.755Z,67.30
2017-12-02T03:10:38.734Z,82.90
2017-12-02T03:11:38.711Z,85.10
2017-12-02T03:12:38.685Z,136.30
2017-12-02T03:13:38.660Z,99.60
2017-12-02T03:14:38.630Z,86.30
2017-12-02T03:15:38.606Z,69.10
2017-12-02T03:16:38.585Z,75.00
2017-12-02T03:17:38.556Z,69.60
2017-12-02T03:18:38.549Z,63.70
2017-12-02T03:19:38.507Z,64.40
2017-12-02T03:20:38.483Z,86.90
2017-12-02T03:21:38.457Z,77.60
2017-12-02T03:22:38.434Z,78.00
2017-12-02T03:23:38.408Z,111.30
2017-12-02T03:24:38.382Z,71.50
2017-12-02T03:25:38.369Z,71.00
2017-12-02T03:26:38.333Z,76.50
2017-12-02T03:27:38.313Z,80.20
2017-12-02T03:28:38.287Z,107.30
2017-12-02T03:29:38.261Z,88.40
2017-12-02T03:30:38.289Z,102.90
2017-12-02T03:31:38.217Z,72.60
2017-12-02T03:32:38.184Z,92.70
2017-12-02T03:33:38.167Z,84.50
2017-12-02T03:34:38.185Z,81.10
2017-12-02T03:35:38.116Z,100.80
2017-12-02T03:36:38.116Z,72.70
2017-12-02T03:37:38.064Z,79.70
2017-12-02T03:38:38.033Z,105.70
2017-12-02T03:39:38.013Z,81.70
2017-12-02T03:40:38.093Z,86.40
2017-12-02T03:41:37.961Z,100.90
2017-12-02T03:42:37.933Z,114.40
2017-12-02T03:43:37.919Z,120.90
2017-12-02T03:44:37.896Z,102.40
2017-12-02T03:45:37.860Z,108.00
2017-12-02T03:46:37.893Z,125.10
2017-12-02T03:47:37.810Z,150.20
2017-12-02T03:48:37.782Z,113.70
2017-12-02T03:49:37.762Z,95.10
2017-12-02T03:50:37.843Z,86.20
2017-12-02T03:51:37.706Z,103.90
2017-12-02T03:52:37.681Z,82.70
2017-12-02T03:53:37.659Z,86.90
2017-12-02T03:54:37.632Z,111.30
2017-12-02T03:55:37.608Z,77.00
2017-12-02T03:56:37.580Z,98.50
2017-12-02T03:57:37.558Z,99.60
2017-12-02T03:58:37.531Z,140.80
2017-12-02T03:59:37.511Z,146.70
2017-12-02T04:00:37.481Z,97.60
2017-12-02T04:01:37.462Z,85.20
2017-12-02T04:02:37.428Z,71.30
2017-12-02T04:03:37.407Z,72.50
2017-12-02T04:04:37.380Z,62.90
2017-12-02T04:05:37.358Z,80.90
2017-12-02T04:06:37.328Z,99.60
2017-12-02T04:07:37.307Z,99.90
2017-12-02T04:08:37.280Z,129.10
2017-12-02T04:09:37.257Z,72.80
2017-12-02T04:10:37.239Z,66.20
2017-12-02T04:11:37.206Z,71.70
2017-12-02T04:12:37.179Z,78.40
2017-12-02T04:13:37.155Z,74.20
2017-12-02T04:14:37.127Z,63.20
2017-12-02T04:15:37.105Z,64.90
2017-12-02T04:16:37.079Z,67.70
2017-12-02T04:17:37.056Z,65.90
2017-12-02T04:18:37.031Z,66.80
2017-12-02T04:19:37.026Z,60.50
2017-12-02T04:20:36.981Z,69.60
2017-12-02T04:21:36.955Z,56.00
2017-12-02T04:22:36.930Z,69.00
2017-12-02T04:23:36.906Z,66.20
2017-12-02T04:24:36.879Z,64.20
2017-12-02T04:25:36.856Z,63.60
2017-12-02T04:26:36.870Z,78.10
2017-12-02T04:27:36.804Z,86.80
2017-12-02T04:28:36.780Z,87.50
2017-12-02T04:29:36.756Z,94.20
2017-12-02T04:30:36.728Z,90.50
2017-12-02T04:31:36.717Z,81.50
2017-12-02T04:32:36.681Z,90.90
2017-12-02T04:33:36.655Z,110.50
2017-12-02T04:34:36.627Z,71.80
2017-12-02T04:35:36.662Z,76.70
2017-12-02T04:36:36.578Z,88.70
2017-12-02T04:37:36.554Z,64.40
2017-12-02T04:38:36.526Z,64.90
2017-12-02T04:39:36.502Z,67.70
2017-12-02T04:40:36.476Z,65.50
2017-12-02T04:41:36.546Z,66.90
2017-12-02T04:42:36.426Z,65.80
2017-12-02T04:43:36.401Z,80.00
2017-12-02T04:44:36.389Z,76.30
2017-12-02T04:45:36.371Z,84.60
2017-12-02T04:46:36.326Z,62.70
2017-12-02T04:47:36.303Z,81.40
2017-12-02T04:48:36.279Z,74.60
2017-12-02T04:49:36.252Z,69.80
2017-12-02T04:50:36.231Z,77.70
2017-12-02T04:51:36.202Z,82.40
2017-12-02T04:52:36.178Z,70.40
2017-12-02T04:53:36.159Z,74.20
2017-12-02T04:54:36.129Z,71.50
2017-12-02T04:55:36.103Z,69.80
2017-12-02T04:56:36.080Z,72.00
2017-12-02T04:57:36.051Z,70.60
2017-12-02T04:58:36.030Z,71.50
2017-12-02T04:59:36.000Z,63.10
2017-12-02T05:00:35.999Z,73.20
2017-12-02T05:01:35.962Z,75.60
2017-12-02T05:02:35.932Z,67.00
2017-12-02T05:03:35.909Z,87.40
2017-12-02T05:04:35.878Z,74.30
2017-12-02T05:05:35.855Z,61.00
2017-12-02T05:06:35.827Z,66.80
2017-12-02T05:07:35.810Z,62.00
2017-12-02T05:08:35.786Z,63.30
2017-12-02T05:09:35.758Z,69.90
2017-12-02T05:10:35.726Z,57.40
2017-12-02T05:11:35.705Z,68.60
2017-12-02T05:12:35.677Z,88.20
2017-12-02T05:13:35.653Z,57.00
2017-12-02T05:14:35.627Z,54.60
2017-12-02T05:15:35.619Z,61.30
2017-12-02T05:16:35.589Z,79.50
2017-12-02T05:17:35.551Z,120.40
2017-12-02T05:18:35.526Z,133.40
2017-12-02T05:19:35.510Z,86.50
2017-12-02T05:20:35.477Z,64.20
2017-12-02T05:21:35.456Z,60.20
2017-12-02T05:22:35.429Z,59.90
2017-12-02T05:23:35.404Z,73.70
2017-12-02T05:24:35.384Z,63.40
2017-12-02T05:25:35.355Z,64.10
2017-12-02T05:26:35.349Z,62.30
2017-12-02T05:27:35.314Z,73.10
2017-12-02T05:28:35.275Z,64.10
2017-12-02T05:29:35.253Z,68.00
2017-12-02T05:30:35.229Z,74.00
2017-12-02T05:31:35.212Z,60.80
2017-12-02T05:32:35.193Z,66.10
2017-12-02T05:33:35.156Z,74.80
2017-12-02T05:34:35.125Z,79.20
2017-12-02T05:35:35.104Z,80.60
2017-12-02T05:36:35.085Z,126.90
2017-12-02T05:37:35.052Z,102.70
2017-12-02T05:38:35.026Z,72.30
2017-12-02T05:39:35.003Z,69.90
2017-12-02T05:40:35.024Z,68.90
2017-12-02T05:41:34.952Z,64.60
2017-12-02T05:42:34.926Z,61.60
2017-12-02T05:43:34.902Z,60.40
2017-12-02T05:44:34.877Z,84.50
2017-12-02T05:45:34.853Z,96.00
2017-12-02T05:46:34.847Z,110.70
2017-12-02T05:47:34.811Z,98.60
2017-12-02T05:48:34.781Z,76.30
2017-12-02T05:49:34.751Z,76.90
2017-12-02T05:50:34.758Z,82.00
2017-12-02T05:51:34.703Z,95.90
2017-12-02T05:52:34.681Z,73.90
2017-12-02T05:53:34.654Z,88.10
2017-12-02T05:54:34.632Z,93.90
2017-12-02T05:55:34.603Z,106.20
2017-12-02T05:56:34.580Z,90.70
2017-12-02T05:57:34.554Z,71.10
2017-12-02T05:58:34.531Z,85.30
2017-12-02T05:59:34.500Z,69.90
2017-12-02T06:00:34.479Z,69.20
2017-12-02T06:01:34.459Z,66.70
2017-12-02T06:02:34.432Z,76.70
2017-12-02T06:03:34.410Z,73.40
2017-12-02T06:04:34.394Z,70.90
2017-12-02T06:05:34.352Z,73.30
2017-12-02T06:06:34.328Z,88.60
2017-12-02T06:07:34.301Z,74.00
2017-12-02T06:08:34.272Z,65.50
2017-12-02T06:09:34.250Z,71.10
2017-12-02T06:10:34.223Z,76.30
2017-12-02T06:11:34.199Z,74.60
2017-12-02T06:12:34.172Z,100.00
2017-12-02T06:13:34.150Z,115.80
2017-12-02T06:14:34.122Z,62.30
2017-12-02T06:15:34.099Z,67.30
2017-12-02T06:16:34.072Z,66.10
2017-12-02T06:17:34.048Z,62.40
2017-12-02T06:18:34.021Z,63.60
2017-12-02T06:19:33.997Z,53.40
2017-12-02T06:20:33.981Z,53.80
2017-12-02T06:21:33.949Z,65.00
2017-12-02T06:22:33.920Z,63.20
2017-12-02T06:23:33.896Z,76.40
2017-12-02T06:24:33.871Z,64.80
2017-12-02T06:25:33.849Z,72.80
2017-12-02T06:26:33.823Z,58.30
2017-12-02T06:27:33.796Z,52.30
2017-12-02T06:28:33.770Z,49.20
2017-12-02T06:29:33.745Z,55.90
2017-12-02T06:30:33.718Z,63.40
2017-12-02T06:31:33.713Z,60.00
2017-12-02T06:32:33.674Z,63.40
2017-12-02T06:33:33.645Z,90.30
2017-12-02T06:34:33.669Z,59.60
2017-12-02T06:35:33.606Z,61.20
2017-12-02T06:36:33.568Z,59.80
2017-12-02T06:37:33.585Z,52.70
2017-12-02T06:38:33.519Z,55.00
2017-12-02T06:39:33.495Z,61.60
2017-12-02T06:40:33.469Z,56.10
2017-12-02T06:41:33.458Z,56.50
2017-12-02T06:42:33.418Z,54.80
2017-12-02T06:43:33.395Z,57.70
2017-12-02T06:44:33.379Z,47.40
2017-12-02T06:45:33.408Z,57.30
2017-12-02T06:46:33.318Z,61.10
2017-12-02T06:47:33.301Z,70.40
2017-12-02T06:48:33.273Z,63.50
2017-12-02T06:49:33.243Z,58.70
2017-12-02T06:50:33.217Z,53.80
2017-12-02T06:51:33.192Z,57.80
2017-12-02T06:52:33.167Z,62.10
2017-12-02T06:53:33.142Z,61.90
2017-12-02T06:54:33.117Z,52.80
2017-12-02T06:55:33.091Z,55.40
2017-12-02T06:56:33.071Z,52.30
2017-12-02T06:57:33.041Z,60.50
2017-12-02T06:58:33.017Z,65.60
2017-12-02T06:59:32.993Z,83.00
2017-12-02T07:00:32.970Z,61.00
2017-12-02T07:01:32.945Z,69.70
2017-12-02T07:02:32.915Z,66.60
2017-12-02T07:03:32.889Z,54.10
2017-12-02T07:04:32.882Z,60.80
2017-12-02T07:05:32.842Z,63.50
2017-12-02T07:06:32.815Z,59.70
2017-12-02T07:07:32.790Z,58.20
2017-12-02T07:08:32.765Z,59.00
2017-12-02T07:09:32.742Z,63.20
2017-12-02T07:10:32.713Z,72.50
2017-12-02T07:11:32.695Z,70.10
2017-12-02T07:12:32.663Z,71.90
2017-12-02T07:13:32.639Z,57.30
2017-12-02T07:14:32.614Z,58.70
2017-12-02T07:15:32.589Z,60.60
2017-12-02T07:16:32.563Z,68.40
2017-12-02T07:17:32.540Z,66.90
2017-12-02T07:18:32.521Z,60.30
2017-12-02T07:19:32.488Z,62.30
2017-12-02T07:20:32.467Z,62.00
2017-12-02T07:21:32.438Z,62.90
2017-12-02T07:22:32.412Z,101.20
2017-12-02T07:23:32.390Z,73.00
2017-12-02T07:24:32.362Z,58.70
2017-12-02T07:25:32.336Z,66.80
2017-12-02T07:26:32.362Z,68.00
2017-12-02T07:27:32.288Z,84.50
2017-12-02T07:28:32.263Z,77.50
2017-12-02T07:29:32.246Z,76.20
2017-12-02T07:30:32.259Z,65.10
2017-12-02T07:31:32.186Z,63.50
2017-12-02T07:32:32.192Z,65.20
2017-12-02T07:33:32.137Z,68.00
2017-12-02T07:34:32.108Z,66.60
2017-12-02T07:35:32.083Z,69.60
2017-12-02T07:36:32.114Z,80.70
2017-12-02T07:37:32.036Z,69.20
2017-12-02T07:38:32.008Z,76.70
2017-12-02T07:39:31.986Z,67.10
2017-12-02T07:40:32.092Z,76.00
2017-12-02T07:41:31.935Z,67.60
2017-12-02T07:42:31.919Z,64.00
2017-12-02T07:43:31.884Z,64.60
2017-12-02T07:44:31.905Z,61.30
2017-12-02T07:45:31.836Z,61.60
2017-12-02T07:46:31.802Z,64.60
2017-12-02T07:47:31.778Z,72.60
2017-12-02T07:48:31.756Z,64.00
2017-12-02T07:49:31.735Z,71.70
2017-12-02T07:50:31.702Z,73.70
2017-12-02T07:51:31.678Z,78.20
2017-12-02T07:52:31.652Z,65.20
2017-12-02T07:53:31.627Z,68.40
2017-12-02T07:54:31.603Z,63.50
2017-12-02T07:55:31.574Z,60.30
2017-12-02T07:56:31.552Z,60.00
2017-12-02T07:57:31.528Z,57.50
2017-12-02T07:58:31.502Z,57.50
2017-12-02T07:59:31.473Z,63.20
2017-12-02T08:00:31.449Z,57.50
2017-12-02T08:01:31.424Z,62.70
2017-12-02T08:02:31.404Z,63.90
2017-12-02T08:03:31.373Z,64.00
2017-12-02T08:04:31.359Z,69.40
2017-12-02T08:05:31.323Z,60.70
2017-12-02T08:06:31.297Z,57.60
2017-12-02T08:07:31.271Z,56.10
2017-12-02T08:08:31.245Z,54.90
2017-12-02T08:09:31.221Z,51.20
2017-12-02T08:10:31.196Z,53.50
2017-12-02T08:11:31.171Z,48.60
2017-12-02T08:12:31.146Z,52.00
2017-12-02T08:13:31.123Z,51.80
2017-12-02T08:14:31.094Z,58.10
2017-12-02T08:15:31.070Z,57.30
2017-12-02T08:16:31.055Z,62.00
2017-12-02T08:17:31.018Z,59.80
2017-12-02T08:18:30.993Z,67.50
2017-12-02T08:19:30.974Z,59.60
2017-12-02T08:20:30.943Z,54.50
2017-12-02T08:21:30.973Z,67.10
2017-12-02T08:22:30.893Z,64.80
2017-12-02T08:23:30.869Z,60.30
2017-12-02T08:24:30.853Z,63.60
2017-12-02T08:25:30.836Z,73.40
2017-12-02T08:26:30.800Z,69.80
2017-12-02T08:27:30.814Z,65.10
2017-12-02T08:28:30.741Z,64.40
2017-12-02T08:29:30.717Z,64.20
2017-12-02T08:30:30.689Z,61.50
2017-12-02T08:31:30.688Z,60.80
2017-12-02T08:32:30.641Z,58.30
2017-12-02T08:33:30.617Z,63.40
2017-12-02T08:34:30.589Z,60.50
2017-12-02T08:35:30.567Z,58.20
2017-12-02T08:36:30.538Z,57.50
2017-12-02T08:37:30.607Z,70.30
2017-12-02T08:38:30.489Z,63.90
2017-12-02T08:39:30.477Z,63.70
2017-12-02T08:40:30.438Z,57.60
2017-12-02T08:41:30.417Z,58.90
2017-12-02T08:42:30.447Z,54.00
2017-12-02T08:43:30.366Z,53.20
2017-12-02T08:44:30.337Z,49.20
2017-12-02T08:45:30.315Z,50.90
2017-12-02T08:46:30.292Z,56.60
2017-12-02T08:47:30.264Z,55.30
2017-12-02T08:48:30.242Z,52.40
2017-12-02T08:49:30.218Z,50.10
2017-12-02T08:50:30.196Z,60.90
2017-12-02T08:51:30.165Z,52.80
2017-12-02T08:52:30.139Z,53.00
2017-12-02T08:53:30.116Z,59.00
2017-12-02T08:54:30.088Z,54.70
2017-12-02T08:55:30.065Z,54.10
2017-12-02T08:56:30.044Z,61.20
2017-12-02T08:57:30.019Z,65.00
2017-12-02T08:58:29.993Z,59.90
2017-12-02T08:59:29.972Z,61.80
2017-12-02T09:00:29.947Z,55.60
2017-12-02T09:01:29.917Z,57.30
2017-12-02T09:02:29.893Z,57.20
2017-12-02T09:03:29.865Z,52.80
2017-12-02T09:04:29.896Z,57.40
2017-12-02T09:05:29.818Z,52.80
2017-12-02T09:06:29.793Z,60.40
2017-12-02T09:07:29.766Z,51.10
2017-12-02T09:08:29.745Z,51.80
2017-12-02T09:09:29.723Z,59.00
2017-12-02T09:10:29.692Z,52.80
2017-12-02T09:11:29.679Z,55.60
2017-12-02T09:12:29.643Z,52.40
2017-12-02T09:13:29.625Z,49.50
2017-12-02T09:14:29.594Z,48.20
2017-12-02T09:15:29.571Z,42.70
2017-12-02T09:16:29.604Z,42.20
2017-12-02T09:17:29.529Z,47.60
2017-12-02T09:18:29.501Z,48.90
2017-12-02T09:19:29.490Z,47.60
2017-12-02T09:20:29.451Z,46.00
2017-12-02T09:21:29.424Z,51.60
2017-12-02T09:22:29.438Z,43.50
2017-12-02T09:23:29.388Z,45.90
2017-12-02T09:24:29.365Z,46.00
2017-12-02T09:25:29.324Z,53.50
2017-12-02T09:26:29.305Z,43.90
2017-12-02T09:27:29.275Z,45.00
2017-12-02T09:28:29.259Z,51.90
2017-12-02T09:29:29.224Z,51.60
2017-12-02T09:30:29.199Z,48.50
2017-12-02T09:31:29.174Z,45.80
2017-12-02T09:32:29.251Z,41.90
2017-12-02T09:33:29.159Z,44.60
2017-12-02T09:34:29.100Z,47.00
2017-12-02T09:35:29.076Z,52.00
2017-12-02T09:36:29.066Z,44.90
2017-12-02T09:37:29.029Z,48.70
2017-12-02T09:38:29.002Z,43.60
2017-12-02T09:39:28.981Z,46.80
2017-12-02T09:40:28.964Z,43.30
2017-12-02T09:41:28.929Z,43.80
2017-12-02T09:42:28.917Z,41.00
2017-12-02T09:43:28.880Z,42.70
2017-12-02T09:44:28.861Z,47.10
2017-12-02T09:45:28.832Z,44.00
2017-12-02T09:46:28.807Z,45.80
2017-12-02T09:47:28.789Z,43.10
2017-12-02T09:48:28.759Z,47.40
2017-12-02T09:49:28.748Z,48.50
2017-12-02T09:50:28.710Z,83.70
2017-12-02T09:51:28.687Z,79.10
2017-12-02T09:52:28.662Z,80.90
2017-12-02T09:53:28.644Z,54.90
2017-12-02T09:54:28.643Z,55.60
2017-12-02T09:55:28.588Z,56.80
2017-12-02T09:56:28.560Z,47.60
2017-12-02T09:57:28.544Z,42.90
2017-12-02T09:58:28.521Z,41.30
2017-12-02T09:59:28.487Z,37.90
2017-12-02T10:00:28.464Z,40.90
2017-12-02T10:01:28.445Z,42.30
2017-12-02T10:02:28.413Z,39.80
2017-12-02T10:03:28.390Z,41.70
2017-12-02T10:04:28.373Z,40.50
2017-12-02T10:05:28.343Z,43.00
2017-12-02T10:06:28.314Z,42.10
2017-12-02T10:07:28.293Z,61.00
2017-12-02T10:08:28.266Z,39.10
2017-12-02T10:09:28.243Z,50.80
2017-12-02T10:10:28.216Z,44.70
2017-12-02T10:11:28.198Z,39.10
2017-12-02T10:12:28.171Z,43.90
2017-12-02T10:13:28.152Z,38.70
2017-12-02T10:14:28.117Z,42.20
2017-12-02T10:15:28.102Z,47.10
2017-12-02T10:16:28.071Z,42.00
2017-12-02T10:17:28.051Z,43.70
2017-12-02T10:18:28.026Z,43.10
2017-12-02T10:19:27.995Z,41.90
2017-12-02T10:20:27.971Z,40.20
2017-12-02T10:21:28.002Z,43.10
2017-12-02T10:22:27.940Z,49.20
2017-12-02T10:23:27.897Z,47.70
2017-12-02T10:24:27.896Z,39.00
2017-12-02T10:25:27.853Z,41.80
2017-12-02T10:26:27.824Z,45.30
2017-12-02T10:27:27.818Z,42.30
2017-12-02T10:28:27.776Z,45.10
2017-12-02T10:29:27.749Z,41.90
2017-12-02T10:30:27.738Z,40.10
2017-12-02T10:31:27.809Z,45.70
2017-12-02T10:32:27.684Z,37.30
2017-12-02T10:33:27.690Z,43.40
2017-12-02T10:34:27.632Z,42.60
2017-12-02T10:35:27.607Z,43.40
2017-12-02T10:36:27.583Z,44.90
2017-12-02T10:37:27.690Z,46.80
2017-12-02T10:38:27.534Z,41.50
2017-12-02T10:39:27.512Z,40.40
2017-12-02T10:40:27.487Z,37.30
2017-12-02T10:41:27.473Z,37.90
2017-12-02T10:42:27.442Z,49.00
2017-12-02T10:43:27.414Z,41.10
2017-12-02T10:44:27.389Z,38.30
2017-12-02T10:45:27.359Z,37.40
2017-12-02T10:46:27.339Z,36.60
2017-12-02T10:47:27.311Z,38.30
2017-12-02T10:48:27.290Z,36.70
2017-12-02T10:49:27.264Z,33.20
2017-12-02T10:50:27.238Z,34.80
2017-12-02T10:51:27.214Z,33.70
2017-12-02T10:52:27.188Z,36.10
2017-12-02T10:53:27.168Z,34.70
2017-12-02T10:54:27.145Z,31.80
2017-12-02T10:55:27.126Z,33.10
2017-12-02T10:56:27.095Z,31.30
2017-12-02T10:57:27.069Z,33.60
2017-12-02T10:58:27.062Z,37.00
2017-12-02T10:59:27.021Z,33.00
2017-12-02T11:00:26.996Z,33.70
2017-12-02T11:01:26.973Z,40.00
2017-12-02T11:02:26.954Z,40.00
2017-12-02T11:03:26.925Z,42.80
2017-12-02T11:04:26.898Z,36.70
2017-12-02T11:05:26.876Z,39.70
2017-12-02T11:06:26.871Z,37.60
2017-12-02T11:07:26.828Z,38.50
2017-12-02T11:08:26.806Z,36.40
2017-12-02T11:09:26.798Z,36.00
2017-12-02T11:10:26.756Z,37.80
2017-12-02T11:11:26.737Z,39.80
2017-12-02T11:12:26.704Z,39.50
2017-12-02T11:13:26.684Z,37.00
2017-12-02T11:14:26.657Z,35.90
2017-12-02T11:15:26.632Z,33.80
2017-12-02T11:16:26.608Z,37.50
2017-12-02T11:17:26.594Z,35.70
2017-12-02T11:18:26.557Z,34.90
2017-12-02T11:19:26.543Z,37.70
2017-12-02T11:20:26.512Z,36.60
2017-12-02T11:21:26.490Z,42.70
2017-12-02T11:22:26.763Z,46.30
2017-12-02T11:23:26.446Z,36.20
2017-12-02T11:24:26.414Z,34.20
2017-12-02T11:25:26.400Z,36.10
2017-12-02T11:26:26.381Z,38.90
2017-12-02T11:27:26.345Z,39.40
2017-12-02T11:28:26.327Z,37.70
2017-12-02T11:29:26.295Z,40.80
2017-12-02T11:30:26.272Z,63.70
2017-12-02T11:31:26.244Z,45.10
2017-12-02T11:32:26.350Z,41.70
2017-12-02T11:33:26.200Z,41.90
2017-12-02T11:34:26.196Z,41.30
2017-12-02T11:35:26.163Z,41.60
2017-12-02T11:36:26.177Z,38.70
2017-12-02T11:37:26.102Z,37.10
2017-12-02T11:38:26.087Z,40.50
2017-12-02T11:39:26.061Z,39.80
2017-12-02T11:40:26.030Z,37.50
2017-12-02T11:41:26.007Z,40.00
2017-12-02T11:42:26.004Z,37.70
2017-12-02T11:43:25.960Z,41.20
2017-12-02T11:44:25.943Z,37.30
2017-12-02T11:45:25.913Z,38.40
2017-12-02T11:46:25.888Z,37.30
2017-12-02T11:47:25.862Z,37.40
2017-12-02T11:48:25.872Z,37.30
2017-12-02T11:49:25.813Z,39.00
2017-12-02T11:50:25.789Z,36.60
2017-12-02T11:51:25.764Z,34.10
2017-12-02T11:52:25.743Z,35.10
2017-12-02T11:53:25.732Z,34.30
2017-12-02T11:54:25.690Z,36.00
2017-12-02T11:55:25.669Z,36.80
2017-12-02T11:56:25.663Z,37.20
2017-12-02T11:57:25.625Z,41.20
2017-12-02T11:58:25.606Z,36.20
2017-12-02T11:59:25.577Z,33.90
2017-12-02T12:00:25.547Z,35.10
2017-12-02T12:01:25.529Z,34.70
2017-12-02T12:02:25.496Z,33.60
2017-12-02T12:03:25.472Z,32.00
2017-12-02T12:04:25.456Z,31.20
2017-12-02T12:05:25.426Z,30.50
2017-12-02T12:06:25.403Z,33.60
2017-12-02T12:07:25.378Z,33.20
2017-12-02T12:08:25.365Z,33.50
2017-12-02T12:09:25.336Z,35.60
2017-12-02T12:10:25.313Z,34.70
2017-12-02T12:11:25.280Z,38.70
2017-12-02T12:12:25.264Z,36.40
2017-12-02T12:13:25.238Z,38.30
2017-12-02T12:14:25.207Z,37.90
2017-12-02T12:15:25.185Z,39.60
2017-12-02T12:16:25.164Z,36.50
2017-12-02T12:17:25.138Z,40.40
2017-12-02T12:18:25.144Z,38.60
2017-12-02T12:19:25.096Z,39.50
2017-12-02T12:20:25.065Z,37.80
2017-12-02T12:21:25.047Z,42.70
2017-12-02T12:22:25.020Z,36.60
2017-12-02T12:23:25.004Z,37.30
2017-12-02T12:24:24.976Z,38.20
2017-12-02T12:25:24.951Z,38.50
2017-12-02T12:26:24.919Z,35.60
2017-12-02T12:27:24.899Z,36.50
2017-12-02T12:28:24.880Z,34.00
2017-12-02T12:29:24.855Z,33.80
2017-12-02T12:30:24.825Z,34.90
2017-12-02T12:31:24.801Z,34.90
2017-12-02T12:32:24.777Z,35.70
2017-12-02T12:33:24.769Z,33.90
2017-12-02T12:34:24.734Z,34.60
2017-12-02T12:35:24.709Z,38.10
2017-12-02T12:36:24.686Z,36.80
2017-12-02T12:37:24.674Z,38.70
2017-12-02T12:38:24.633Z,32.40
2017-12-02T12:39:24.612Z,34.70
2017-12-02T12:40:24.584Z,38.70
2017-12-02T12:41:24.574Z,41.80
2017-12-02T12:42:24.535Z,39.70
2017-12-02T12:43:24.589Z,40.80
2017-12-02T12:44:24.485Z,40.00
2017-12-02T12:45:24.462Z,38.10
2017-12-02T12:46:24.440Z,40.40
2017-12-02T12:47:24.439Z,42.20
2017-12-02T12:48:24.392Z,41.20
2017-12-02T12:49:24.464Z,45.80
2017-12-02T12:50:24.343Z,40.00